• Join FlightAware (Why Join?)
  • Login
  • US Flag 
02:18AM EDT


 

Airport Tracker/Info


-or-


 

Live Flight TrackerFlight Track Log ✈ SWA2955 ✈ 07-Apr-2013 ✈ KBUR - KSJC

Flight Track Log - Related Links

Times and Time Zones

All times are in EDT time to prevent confusion due to time zone crossing. See the SWA2955 flight status page for this flight to view local times or setup timezone preferences in your user account.

Time Position Orientation Groundspeed Altitude Reporting Facility
EDT Latitude Longitude Course Direction KTS MPH feet Rate Location/Type
09:17PM 34.1758 -118.4222 269° West 238 274 5,100  Level Los Angeles Center
09:18PM 34.2500 -118.4708 332° Northwest 252 290 10,000 4,020 Climbing Los Angeles Center
09:19PM 34.3161 -118.5181 329° Northwest 271 312 13,500 3,540 Climbing Los Angeles Center
09:20PM 34.3883 -118.5669 331° Northwest 296 341 17,400 2,700 Climbing Los Angeles Center
09:21PM 34.2240 -118.5740 320° Northwest  Level FlightAware Approximate
09:21PM 34.4653 -118.6217 330° Northwest 329 379 19,100  Level Los Angeles Center
09:22PM 34.5564 -118.6864 330° Northwest 379 436 21,700 2,940 Climbing Los Angeles Center
09:23PM 34.6672 -118.7667 329° Northwest 387 445 25,200 2,700 Climbing Los Angeles Center
09:24PM 34.7650 -118.8353 330° Northwest 402 463 27,400 2,400 Climbing Los Angeles Center
09:25PM 34.8581 -118.9089 327° Northwest 402 463 30,200 2,580 Climbing Los Angeles Center
09:26PM 34.9272 -119.0258 306° West 392 451 32,800 2,460 Climbing Los Angeles Center
09:27PM 34.9886 -119.1278 306° West 376 433 35,300 1,860 Climbing Los Angeles Center
09:28PM 35.0481 -119.2308 305° West 373 429 36,700 1,260 Climbing Los Angeles Center
09:29PM 35.1075 -119.3331 305° West 372 428 38,000 600 Climbing Los Angeles Center
09:30PM 35.1669 -119.4358 305° West 372 428 38,000  Level Los Angeles Center
09:31PM 35.2247 -119.5369 305° West 366 421 38,000  Level Los Angeles Center
09:32PM 35.2833 -119.6386 305° West 367 422 38,000  Level Los Angeles Center
09:33PM 35.3536 -119.7611 305° West 366 421 38,000  Level Los Angeles Center
09:34PM 35.3872 -119.8208 305° West 366 421 38,000  Level Oakland Center
09:35PM 35.4461 -119.9222 306° West 368 423 38,000  Level Oakland Center
09:36PM 35.5028 -120.0239 304° West 365 420 38,000  Level Oakland Center
09:37PM 35.5717 -120.1458 305° West 367 422 38,000  Level Oakland Center
09:38PM 35.6292 -120.2475 305° West 367 422 38,000  Level Oakland Center
09:39PM 35.6869 -120.3514 304° West 370 426 38,000  Level Oakland Center
09:40PM 35.7356 -120.4617 299° West 369 425 38,000  Level Oakland Center
09:41PM 35.7850 -120.5728 299° West 372 428 38,000  Level Oakland Center
09:42PM 35.8350 -120.6828 299° West 371 427 38,000 -600 Level Oakland Center
09:43PM 35.8839 -120.7922 299° West 368 423 36,800 -1,320 Descending Oakland Center
09:44PM 35.9306 -120.8978 299° West 357 411 35,300 -1,680 Descending Oakland Center
09:45PM 35.9861 -121.0217 299° West 352 405 33,400 -1,920 Descending Oakland Center
09:46PM 36.0636 -121.0917 324° Northwest 345 397 31,400 -2,160 Descending Oakland Center
09:47PM 36.1414 -121.1553 327° Northwest 338 389 29,100 -2,700 Descending Oakland Center
09:48PM 36.2172 -121.2200 325° Northwest 334 384 26,000 -2,820 Descending Oakland Center
09:49PM 36.3031 -121.2856 328° Northwest 357 411 23,400 -1,920 Descending Oakland Center
09:50PM 36.3800 -121.3536 325° Northwest 344 396 22,100 -1,740 Descending Oakland Center
09:51PM 36.4558 -121.4178 326° Northwest 331 381 19,900 -2,340 Descending Oakland Center
09:52PM 36.5317 -121.4767 328° Northwest 323 372 17,400 -2,760 Descending Oakland Center
09:53PM 36.6269 -121.5097 344° North 350 403 14,400 -2,460 Descending Oakland Center
09:54PM 36.7167 -121.5425 344° North 334 384 12,500 -2,040 Descending Oakland Center
09:55PM 36.8186 -121.5811 343° North 317 365 10,300 -1,620 Descending Oakland Center
09:56PM 36.8886 -121.6119 341° North 292 336 9,300 -1,140 Descending Oakland Center
09:57PM 36.9594 -121.6364 345° North 271 312 8,000 -1,080 Descending Oakland Center
09:58PM 37.0244 -121.6586 345° North 250 288 7,200 -960 Descending Oakland Center
09:59PM 37.0856 -121.6825 343° North 234 269 6,100 -1,140 Descending Oakland Center
10:00PM 37.1453 -121.7072 342° North 229 264 5,000 -960 Descending Oakland Center
10:01PM 37.1972 -121.7436 331° Northwest 223 257 4,200 -1,020 Descending Oakland Center
10:02PM 37.2411 -121.7981 315° West 222 255 3,000 -1,140 Descending Oakland Center
10:03PM 37.2853 -121.8439 320° Northwest 186 214 1,900 -960 Descending Oakland Center
10:04PM 37.3169 -121.8761 321° Northwest 165 190 1,100 -720 Descending Oakland Center
10:05PM 37.3419 -121.9039 319° Northwest 140 161 500 17,160 Descending Oakland Center
10:06PM 37.3653 -121.9314 317° Northwest 115 132 36,000 34,860 Climbing Oakland Center
10:08PM 37.3627 -121.9291 North  Level Estimated
10:15PM 37.3627 -121.9291 North  Level Estimated